KOGA/OGA METAR and TAF weather

Enter ICAO airport designator
Station Type Date Time Source
KOGA METAR 2020/12/06 01:35 UTC NOAA

KOGA 060135Z AUTO 25003KT 10SM CLR 00/M08 A3027 RMK AO2 T00011085


Station Type Date Time Source
KOGA Decoded METAR 2020/12/06 01:35 UTC NOAA

Ogallala, Searle Field Airport, NE, United States (KOGA) 41-07-11N 101-46-08W
Dec 05, 2020 - 08:35 PM EST / 2020.12.06 0135 UTC
Wind: from the WSW (250 degrees) at 3 MPH (3 KT):0
Visibility: 10 mile(s):0
Sky conditions: clear
Temperature: 32.2 F (0.1 C)
Dew Point: 16.7 F (-8.5 C)
Relative Humidity: 52%
Pressure (altimeter): 30.27 in. Hg (1025 hPa)
ob: KOGA 060135Z AUTO 25003KT 10SM CLR 00/M08 A3027 RMK AO2 T00011085
cycle: 1

Station Type Date Time Source
KOGA TAF UTC NOAA

Error!

Example: see airport list